Keweenaw Bay, Michigan
Current Conditions -  °F | °C
As of 11:53 PM on Monday 22 Dec 2014 (Local Time) from KCMX Reporting Station
Light Snow Light Snow  
Wind Chill: 24°   Ceiling: 300
Heat Index: 32°   Visibility: 0.75mi
Dew Point: 30°   Wind: 9mph
Humidity: 92%   Direction: 110°ESE
Pressure: 29.82"   Gusts: NA
Location:  46.811°N, 88.5098°W
Report Text: KCMX 230453Z AUTO 11008KT 3/4SM -SN BR OVC003 00/M01 A2982 RMK AO2 SNB05 SLP110 P0000 T00001011 400170000
Loading
Personal Weather Stations






























Interactive Weather Map New forecast layout! Learn more

10-Day Weather Forecast

Advertisements
Track Severe Weather on mobile